Time;durP1;ratioP1;P1;durP2;ratioP2;P2;SDS_P1;SDS_P2;PMS_P1;PMS_P2;Temp;Humidity;BMP_temperature;BMP_pressure;BME280_temperature;BME280_humidity;BME280_pressure;Samples;Min_cycle;Max_cycle;Signal;HPM_P1;HPM_P2
2023/08/21 00:00:50;;;;;;;7.15;2.45;;;20.90;99.90;;;;;;5096141;28;20163;-74
2023/08/21 00:03:16;;;;;;;5.47;2.30;;;20.90;99.90;;;;;;5114248;28;20171;-73
2023/08/21 00:05:42;;;;;;;5.63;2.35;;;21.00;99.90;;;;;;5112724;28;20600;-73
2023/08/21 00:08:07;;;;;;;4.93;2.40;;;21.00;99.90;;;;;;5114228;28;20167;-73
2023/08/21 00:10:33;;;;;;;5.43;2.75;;;21.10;99.90;;;;;;5113710;28;20650;-73
2023/08/21 00:12:58;;;;;;;4.95;2.97;;;21.10;99.90;;;;;;5112775;28;20174;-73
2023/08/21 00:15:24;;;;;;;4.88;2.38;;;21.10;99.90;;;;;;5113883;28;20258;-73
2023/08/21 00:17:50;;;;;;;3.47;2.30;;;21.20;99.90;;;;;;5113767;28;20302;-73
2023/08/21 00:20:15;;;;;;;7.85;2.50;;;21.10;99.90;;;;;;5113930;28;20170;-73
2023/08/21 00:22:41;;;;;;;7.20;2.40;;;21.10;99.90;;;;;;5113780;28;20171;-73
2023/08/21 00:25:07;;;;;;;8.38;2.28;;;21.00;99.90;;;;;;5113693;28;20253;-74
2023/08/21 00:27:33;;;;;;;7.25;2.35;;;21.00;99.90;;;;;;5113972;28;20174;-73
2023/08/21 00:30:00;;;;;;;6.60;2.65;;;21.10;99.90;;;;;;5114070;28;20182;-74
2023/08/21 00:32:26;;;;;;;6.13;2.72;;;21.00;99.90;;;;;;5113914;28;20186;-74
2023/08/21 00:34:51;;;;;;;5.78;2.63;;;21.00;99.90;;;;;;5113635;28;20171;-73
2023/08/21 00:37:17;;;;;;;5.75;2.40;;;20.90;99.90;;;;;;5113759;28;20553;-73
2023/08/21 00:39:43;;;;;;;5.57;2.38;;;20.90;99.90;;;;;;5113621;28;20228;-74
2023/08/21 00:42:08;;;;;;;6.13;2.47;;;21.00;99.90;;;;;;5113853;28;20638;-74
2023/08/21 00:44:34;;;;;;;5.70;2.78;;;21.00;99.90;;;;;;5113611;28;20308;-73
2023/08/21 00:47:00;;;;;;;5.85;2.42;;;20.90;99.90;;;;;;5113789;28;20221;-74
2023/08/21 00:49:27;;;;;;;5.18;2.13;;;20.80;99.90;;;;;;5113759;28;20258;-74
2023/08/21 00:51:53;;;;;;;4.63;2.28;;;20.70;99.90;;;;;;5113782;28;20190;-73
2023/08/21 00:54:19;;;;;;;5.75;2.42;;;20.70;99.90;;;;;;5114574;28;20183;-74
2023/08/21 00:56:45;;;;;;;9.10;2.63;;;20.70;99.90;;;;;;5117937;28;20164;-73
2023/08/21 00:59:12;;;;;;;4.30;1.92;;;20.70;99.90;;;;;;5117867;28;20166;-73
2023/08/21 01:01:38;;;;;;;4.85;2.30;;;20.80;99.90;;;;;;5118052;28;20270;-74
2023/08/21 01:04:03;;;;;;;7.22;2.70;;;20.80;99.90;;;;;;5117591;28;20266;-74
2023/08/21 01:06:29;;;;;;;7.53;2.70;;;20.70;99.90;;;;;;5117628;28;20174;-74
2023/08/21 01:09:23;;;;;;;7.45;2.72;;;20.60;99.90;;;;;;5117576;28;20167;-74
2023/08/21 01:12:30;;;;;;;4.88;2.45;;;20.60;99.90;;;;;;5117523;28;20164;-73
2023/08/21 01:15:00;;;;;;;10.82;2.92;;;20.60;99.90;;;;;;5093778;28;20631;-74
2023/08/21 01:17:29;;;;;;;4.65;2.40;;;20.60;99.90;;;;;;5116263;28;20214;-74
2023/08/21 01:19:56;;;;;;;6.15;2.38;;;20.60;99.90;;;;;;5117450;28;20211;-74
2023/08/21 01:22:46;;;;;;;6.38;2.50;;;20.50;99.90;;;;;;5117214;28;20746;-74
2023/08/21 01:25:12;;;;;;;4.70;2.25;;;20.40;99.90;;;;;;5117319;28;20279;-74
2023/08/21 01:27:41;;;;;;;6.03;2.80;;;20.40;99.90;;;;;;5117333;28;20223;-74
2023/08/21 01:30:08;;;;;;;3.67;2.80;;;20.40;99.90;;;;;;5117453;28;20171;-74
2023/08/21 01:32:48;;;;;;;5.18;2.63;;;20.50;99.90;;;;;;5117265;28;20735;-74
2023/08/21 01:35:14;;;;;;;5.90;2.85;;;20.50;99.90;;;;;;5117401;27;20183;-75
2023/08/21 01:37:40;;;;;;;6.05;2.53;;;20.40;99.90;;;;;;5116901;27;20213;-73
2023/08/21 01:40:06;;;;;;;8.10;3.05;;;20.30;99.90;;;;;;5117153;28;20171;-74
2023/08/21 01:42:32;;;;;;;6.55;2.78;;;20.20;99.90;;;;;;5115778;28;20168;-74
2023/08/21 01:44:58;;;;;;;7.18;2.70;;;20.20;99.90;;;;;;5115670;28;20214;-74
2023/08/21 01:47:23;;;;;;;6.45;2.80;;;20.20;99.90;;;;;;5116907;28;20248;-74
2023/08/21 01:49:52;;;;;;;8.27;2.60;;;20.20;99.90;;;;;;5116763;28;20618;-73
2023/08/21 01:52:18;;;;;;;9.60;3.00;;;20.20;99.90;;;;;;5116512;28;20167;-74
2023/08/21 01:54:43;;;;;;;6.82;2.40;;;20.10;99.90;;;;;;5116876;28;20253;-74
2023/08/21 01:57:09;;;;;;;9.55;2.55;;;20.10;99.90;;;;;;5116587;28;20587;-73
2023/08/21 01:59:35;;;;;;;8.35;3.10;;;20.00;99.90;;;;;;5116687;28;20518;-73
2023/08/21 02:02:00;;;;;;;6.70;2.45;;;20.00;99.90;;;;;;5116857;28;20163;-73
2023/08/21 02:04:26;;;;;;;6.22;2.55;;;20.00;99.90;;;;;;5116600;28;20684;-74
2023/08/21 02:06:52;;;;;;;8.82;2.60;;;20.00;99.90;;;;;;5115077;28;20266;-74
2023/08/21 02:09:17;;;;;;;3.42;2.45;;;20.00;99.90;;;;;;5116651;28;20643;-74
2023/08/21 02:11:43;;;;;;;8.80;2.88;;;20.00;99.90;;;;;;5116532;28;20163;-74
2023/08/21 02:14:08;;;;;;;6.68;2.65;;;20.00;99.90;;;;;;5116400;28;20167;-73
2023/08/21 02:16:34;;;;;;;6.90;2.90;;;20.00;99.90;;;;;;5116416;28;20515;-73
2023/08/21 02:18:59;;;;;;;6.40;2.55;;;20.00;99.90;;;;;;5116055;28;20241;-74
2023/08/21 02:21:25;;;;;;;7.70;2.80;;;19.90;99.90;;;;;;5115923;28;20175;-73
2023/08/21 02:23:51;;;;;;;5.97;2.80;;;19.90;99.90;;;;;;5116129;28;20687;-75
2023/08/21 02:26:16;;;;;;;11.35;3.47;;;19.90;99.90;;;;;;5116084;28;20178;-73
2023/08/21 02:28:43;;;;;;;7.30;3.00;;;19.90;99.90;;;;;;5116108;28;20255;-73
2023/08/21 02:31:10;;;;;;;7.88;3.15;;;19.90;99.90;;;;;;5116117;28;20220;-73
2023/08/21 02:33:35;;;;;;;10.85;3.13;;;19.80;99.90;;;;;;5115871;28;20167;-74
2023/08/21 02:36:02;;;;;;;6.78;2.60;;;19.70;99.90;;;;;;5115784;28;20692;-74
2023/08/21 02:38:28;;;;;;;9.00;3.15;;;19.80;99.90;;;;;;5116216;28;20178;-74
2023/08/21 02:40:54;;;;;;;7.63;2.65;;;19.80;99.90;;;;;;5115792;28;20179;-74
2023/08/21 02:43:19;;;;;;;8.15;2.83;;;19.80;99.90;;;;;;5115772;28;20202;-74
2023/08/21 02:45:45;;;;;;;6.30;3.05;;;19.80;99.90;;;;;;5116080;28;20199;-74
2023/08/21 02:48:11;;;;;;;11.38;3.33;;;19.70;99.90;;;;;;5115720;28;20638;-74
2023/08/21 02:50:36;;;;;;;4.68;2.60;;;19.80;99.90;;;;;;5115610;28;20224;-75
2023/08/21 02:53:02;;;;;;;6.90;2.88;;;19.70;99.90;;;;;;5115693;28;20160;-75
2023/08/21 02:55:28;;;;;;;10.70;3.40;;;19.70;99.90;;;;;;5115639;28;20635;-74
2023/08/21 02:57:53;;;;;;;7.78;3.10;;;19.70;99.90;;;;;;5115438;28;20262;-74
2023/08/21 03:00:19;;;;;;;7.22;2.75;;;19.70;99.90;;;;;;5114239;28;20171;-74
2023/08/21 03:02:45;;;;;;;7.20;3.08;;;19.80;99.90;;;;;;5115335;28;20179;-73
2023/08/21 03:05:11;;;;;;;5.32;2.80;;;19.60;99.90;;;;;;5114924;28;20199;-75
2023/08/21 03:07:37;;;;;;;8.77;2.95;;;19.60;99.90;;;;;;5115509;28;20638;-74
2023/08/21 03:10:02;;;;;;;7.68;2.85;;;19.60;99.90;;;;;;5115441;28;20170;-75
2023/08/21 03:12:28;;;;;;;6.38;2.63;;;19.60;99.90;;;;;;5115056;28;20216;-74
2023/08/21 03:14:54;;;;;;;8.05;3.50;;;19.60;99.90;;;;;;5114980;28;20221;-74
2023/08/21 03:17:19;;;;;;;9.38;3.25;;;19.50;99.90;;;;;;5114317;28;20211;-74
2023/08/21 03:19:45;;;;;;;9.02;2.95;;;19.60;99.90;;;;;;5114642;28;20175;-74
2023/08/21 03:22:11;;;;;;;6.20;3.15;;;19.50;99.90;;;;;;5115147;28;20198;-74
2023/08/21 03:24:37;;;;;;;8.30;2.97;;;19.50;99.90;;;;;;5114870;28;20203;-74
2023/08/21 03:27:02;;;;;;;5.95;2.88;;;19.40;99.90;;;;;;5114928;28;20163;-74
2023/08/21 03:29:28;;;;;;;7.50;2.80;;;19.30;99.90;;;;;;5114893;28;20206;-74
2023/08/21 03:31:56;;;;;;;9.88;3.25;;;19.30;99.90;;;;;;5114500;28;20649;-74
2023/08/21 03:34:22;;;;;;;6.75;2.83;;;19.30;99.90;;;;;;5114240;28;20527;-74
2023/08/21 03:36:48;;;;;;;8.00;2.88;;;19.40;99.90;;;;;;5114520;28;20618;-74
2023/08/21 03:39:13;;;;;;;11.05;2.78;;;19.30;99.90;;;;;;5113634;28;20252;-74
2023/08/21 03:41:39;;;;;;;4.90;2.92;;;19.20;99.90;;;;;;5114826;28;20635;-74
2023/08/21 03:44:05;;;;;;;9.48;3.42;;;19.20;99.90;;;;;;5114338;28;20524;-74
2023/08/21 03:46:30;;;;;;;7.85;3.28;;;19.20;99.90;;;;;;5113724;28;20677;-73
2023/08/21 03:48:56;;;;;;;7.35;3.13;;;19.20;99.90;;;;;;5114063;28;20160;-73
2023/08/21 03:51:21;;;;;;;7.07;3.45;;;19.20;99.90;;;;;;5114531;28;20225;-74
2023/08/21 03:53:47;;;;;;;7.13;3.38;;;19.10;99.90;;;;;;5114168;28;20487;-73
2023/08/21 03:56:13;;;;;;;8.00;3.30;;;19.00;99.90;;;;;;5114032;28;20681;-74
2023/08/21 03:58:38;;;;;;;6.82;3.67;;;19.00;99.90;;;;;;5114161;28;20162;-74
2023/08/21 04:01:04;;;;;;;11.13;3.15;;;19.10;99.90;;;;;;5114035;28;20255;-73
2023/08/21 04:03:29;;;;;;;10.20;3.65;;;19.10;99.90;;;;;;5113442;28;20527;-75
2023/08/21 04:05:56;;;;;;;7.50;3.08;;;19.10;99.90;;;;;;5113972;28;20595;-73
2023/08/21 04:08:22;;;;;;;9.65;3.40;;;19.10;99.90;;;;;;5113830;28;20250;-73
2023/08/21 04:10:48;;;;;;;10.38;3.63;;;19.10;99.90;;;;;;5113763;28;20175;-74
2023/08/21 04:13:13;;;;;;;6.88;3.40;;;19.10;99.90;;;;;;5113767;28;20494;-74
2023/08/21 04:15:44;;;;;;;9.63;3.60;;;19.10;99.90;;;;;;5113914;28;20218;-74
2023/08/21 04:18:09;;;;;;;10.63;4.13;;;19.00;99.90;;;;;;5113332;28;20210;-74
2023/08/21 04:20:35;;;;;;;9.38;3.80;;;19.00;99.90;;;;;;5113753;28;20179;-73
2023/08/21 04:23:01;;;;;;;8.63;3.65;;;18.90;99.90;;;;;;5112205;28;20575;-73
2023/08/21 04:25:26;;;;;;;7.45;3.90;;;19.00;99.90;;;;;;5113654;28;20211;-74
2023/08/21 04:27:52;;;;;;;8.03;4.00;;;19.00;99.90;;;;;;5113741;28;20279;-74
2023/08/21 04:30:17;;;;;;;9.77;4.05;;;19.00;99.90;;;;;;5112765;28;20175;-74
2023/08/21 04:32:43;;;;;;;8.75;4.15;;;18.90;99.90;;;;;;5112841;28;20167;-74
2023/08/21 04:35:09;;;;;;;10.30;4.32;;;18.90;99.90;;;;;;5113162;28;20523;-73
2023/08/21 04:37:34;;;;;;;10.48;3.83;;;18.80;99.90;;;;;;5113692;28;20171;-74
2023/08/21 04:40:00;;;;;;;8.52;4.35;;;18.80;99.90;;;;;;5113508;28;20167;-74
2023/08/21 04:42:25;;;;;;;9.02;3.95;;;18.90;99.90;;;;;;5113649;28;20521;-73
2023/08/21 04:44:51;;;;;;;8.73;3.90;;;18.90;99.90;;;;;;5112962;28;20207;-75
2023/08/21 04:47:27;;;;;;;12.52;4.40;;;18.90;99.90;;;;;;5112809;28;20191;-75
2023/08/21 04:49:54;;;;;;;10.10;4.03;;;18.90;99.90;;;;;;5113515;28;20620;-73
2023/08/21 04:52:20;;;;;;;10.52;3.78;;;18.90;99.90;;;;;;5111855;28;20183;-73
2023/08/21 04:54:47;;;;;;;13.13;4.05;;;19.00;99.90;;;;;;5112978;28;20337;-73
2023/08/21 04:57:13;;;;;;;9.82;3.72;;;19.00;99.90;;;;;;5113064;28;20630;-73
2023/08/21 04:59:39;;;;;;;9.05;3.25;;;19.10;99.90;;;;;;5113151;28;20252;-73
2023/08/21 05:02:05;;;;;;;13.48;3.22;;;19.10;99.90;;;;;;5112816;28;20252;-74
2023/08/21 05:04:31;;;;;;;8.95;3.58;;;19.30;99.90;;;;;;5111545;28;20206;-72
2023/08/21 05:06:56;;;;;;;9.73;3.53;;;19.90;99.90;;;;;;5113030;28;20197;-73
2023/08/21 05:09:22;;;;;;;10.40;3.05;;;20.40;99.90;;;;;;5112640;28;20250;-73
2023/08/21 05:11:47;;;;;;;10.30;3.47;;;21.00;99.90;;;;;;5112764;28;20169;-73
2023/08/21 05:14:13;;;;;;;8.65;3.05;;;21.80;99.90;;;;;;5113199;28;20246;-73
2023/08/21 05:16:39;;;;;;;8.13;2.78;;;22.40;99.90;;;;;;5112721;28;20171;-73
2023/08/21 05:19:04;;;;;;;20.40;3.63;;;23.10;99.90;;;;;;5112553;28;20693;-72
2023/08/21 05:21:30;;;;;;;9.55;3.20;;;23.70;99.90;;;;;;5112995;28;20242;-72
2023/08/21 05:23:55;;;;;;;18.15;3.08;;;24.40;99.90;;;;;;5112908;28;20164;-74
2023/08/21 05:26:21;;;;;;;9.57;2.80;;;25.20;1.00;;;;;;5112588;28;20295;-74
2023/08/21 05:28:47;;;;;;;8.88;2.67;;;26.10;1.00;;;;;;5113045;28;20179;-74
2023/08/21 05:31:12;;;;;;;10.65;2.47;;;27.00;99.90;;;;;;5112745;28;20271;-74
2023/08/21 05:33:38;;;;;;;7.93;3.00;;;27.60;1.00;;;;;;5112933;28;20175;-75
2023/08/21 05:36:04;;;;;;;12.05;3.20;;;28.30;99.90;;;;;;5112667;28;20619;-74
2023/08/21 05:38:31;;;;;;;7.72;2.90;;;29.00;84.30;;;;;;5113118;28;20172;-74
2023/08/21 05:40:57;;;;;;;10.27;2.70;;;29.70;92.10;;;;;;5114689;28;20187;-75
2023/08/21 05:43:22;;;;;;;12.88;3.13;;;30.20;90.00;;;;;;5115862;28;20174;-74
2023/08/21 05:45:48;;;;;;;8.93;2.80;;;30.70;86.70;;;;;;5116305;28;20214;-75
2023/08/21 05:48:14;;;;;;;8.15;2.85;;;31.20;82.60;;;;;;5116412;28;20699;-74
2023/08/21 05:50:40;;;;;;;6.38;2.92;;;31.70;77.50;;;;;;5116371;28;20193;-75
2023/08/21 05:53:06;;;;;;;10.20;2.90;;;32.10;74.40;;;;;;5114998;28;20167;-74
2023/08/21 05:55:32;;;;;;;9.77;2.60;;;32.60;69.50;;;;;;5116067;28;20232;-74
2023/08/21 05:57:58;;;;;;;5.72;2.35;;;32.90;67.20;;;;;;5115863;28;20682;-74
2023/08/21 06:00:24;;;;;;;8.80;2.80;;;32.70;66.50;;;;;;5116203;28;20263;-74
2023/08/21 06:02:49;;;;;;;10.43;3.03;;;32.80;64.90;;;;;;5115933;28;20688;-74
2023/08/21 06:05:15;;;;;;;7.43;3.30;;;32.60;65.50;;;;;;5115607;28;20225;-74
2023/08/21 06:07:41;;;;;;;11.57;3.90;;;31.80;67.30;;;;;;5116393;28;20164;-73
2023/08/21 06:10:08;;;;;;;7.78;3.30;;;31.20;71.60;;;;;;5115626;28;20606;-74
2023/08/21 06:12:34;;;;;;;9.25;3.35;;;30.40;76.70;;;;;;5115375;28;20175;-74
2023/08/21 06:14:59;;;;;;;10.15;3.90;;;30.70;77.50;;;;;;5116105;28;20174;-74
2023/08/21 06:17:27;;;;;;;7.07;3.30;;;31.50;72.80;;;;;;5115495;28;20765;-73
2023/08/21 06:19:53;;;;;;;8.93;4.03;;;32.30;68.60;;;;;;5114672;28;20171;-74
2023/08/21 06:22:19;;;;;;;11.25;4.00;;;33.00;65.10;;;;;;5115164;28;20211;-74
2023/08/21 06:24:44;;;;;;;9.18;3.67;;;33.80;61.10;;;;;;5115181;28;20211;-73
2023/08/21 06:27:10;;;;;;;11.10;4.43;;;34.40;58.90;;;;;;5114997;28;20182;-73
2023/08/21 06:29:37;;;;;;;7.78;4.00;;;35.00;55.80;;;;;;5115613;28;20171;-75
2023/08/21 06:32:03;;;;;;;11.23;5.25;;;35.60;53.40;;;;;;5114367;28;20182;-75
2023/08/21 06:34:29;;;;;;;11.38;4.13;;;36.10;51.10;;;;;;5115311;28;20167;-74
2023/08/21 06:36:54;;;;;;;8.88;4.72;;;36.50;49.30;;;;;;5115447;28;20258;-74
2023/08/21 06:39:20;;;;;;;10.95;4.07;;;36.60;48.10;;;;;;5114688;28;20191;-74
2023/08/21 06:41:45;;;;;;;9.27;4.55;;;36.80;47.90;;;;;;5114960;28;20209;-75
2023/08/21 06:44:11;;;;;;;8.20;4.75;;;36.80;47.00;;;;;;5115536;28;20175;-75
2023/08/21 06:46:37;;;;;;;7.72;3.88;;;37.50;46.00;;;;;;5114853;28;20662;-75
2023/08/21 06:49:03;;;;;;;6.93;4.10;;;37.80;44.90;;;;;;5114828;28;20257;-76
2023/08/21 06:51:29;;;;;;;10.35;5.43;;;37.60;44.30;;;;;;5114850;27;20163;-75
2023/08/21 06:53:54;;;;;;;8.90;3.70;;;37.70;44.40;;;;;;5114281;28;20166;-75
2023/08/21 06:56:20;;;;;;;7.72;3.70;;;38.70;42.70;;;;;;5114800;28;20166;-75
2023/08/21 06:58:45;;;;;;;7.43;3.25;;;38.90;41.50;;;;;;5113452;28;20232;-77
2023/08/21 07:01:11;;;;;;;7.93;3.50;;;39.10;40.60;;;;;;5114744;28;20171;-77
2023/08/21 07:03:37;;;;;;;7.35;3.72;;;38.90;40.60;;;;;;5114619;28;20266;-75
2023/08/21 07:06:02;;;;;;;5.22;3.33;;;37.90;41.30;;;;;;5114338;28;20281;-77
2023/08/21 07:08:28;;;;;;;8.38;3.50;;;37.40;42.50;;;;;;5115014;28;20163;-77
2023/08/21 07:10:55;;;;;;;8.93;3.58;;;37.90;42.20;;;;;;5114808;28;20190;-75
2023/08/21 07:13:21;;;;;;;7.78;3.60;;;38.30;41.80;;;;;;5114601;28;20163;-76
2023/08/21 07:15:47;;;;;;;7.15;3.50;;;38.40;41.20;;;;;;5114930;28;20170;-75
2023/08/21 07:18:13;;;;;;;7.90;3.25;;;37.40;42.50;;;;;;5114412;28;20210;-76
2023/08/21 07:20:39;;;;;;;8.23;3.50;;;38.10;41.70;;;;;;5114737;28;20617;-76
2023/08/21 07:23:04;;;;;;;7.10;3.45;;;38.60;41.20;;;;;;5114347;28;20175;-76
2023/08/21 07:25:30;;;;;;;8.15;3.95;;;39.50;39.30;;;;;;5114390;28;20202;-77
2023/08/21 07:27:56;;;;;;;7.95;3.60;;;40.20;38.00;;;;;;5114437;28;20171;-77
2023/08/21 07:30:22;;;;;;;7.28;3.70;;;40.60;36.50;;;;;;5114782;28;20174;-77
2023/08/21 07:32:48;;;;;;;8.73;3.42;;;40.70;36.30;;;;;;5114025;27;20246;-77
2023/08/21 07:35:14;;;;;;;7.40;3.70;;;40.20;36.30;;;;;;5114462;28;20253;-77
2023/08/21 07:37:43;;;;;;;7.10;3.65;;;41.00;35.50;;;;;;5114244;28;20171;-77
2023/08/21 07:40:09;;;;;;;11.25;3.65;;;41.00;34.90;;;;;;5113675;28;20171;-78
2023/08/21 07:42:35;;;;;;;7.88;3.50;;;41.40;34.40;;;;;;5114487;28;20680;-78
2023/08/21 07:45:00;;;;;;;7.28;3.40;;;41.00;34.30;;;;;;5112934;28;20212;-77
2023/08/21 07:47:29;;;;;;;7.53;2.90;;;39.90;34.80;;;;;;5113708;28;20226;-78
2023/08/21 07:49:57;;;;;;;5.63;3.50;;;39.20;36.60;;;;;;5114100;28;20615;-77
2023/08/21 07:52:23;;;;;;;8.05;3.70;;;38.60;36.80;;;;;;5090240;28;20172;-79
2023/08/21 07:54:53;;;;;;;9.65;3.25;;;38.10;37.80;;;;;;5081218;28;20179;-77
2023/08/21 07:57:18;;;;;;;7.55;3.55;;;37.80;38.60;;;;;;5081176;28;20194;-77
2023/08/21 07:59:44;;;;;;;9.25;3.88;;;38.30;38.60;;;;;;5073009;28;20255;-77
2023/08/21 08:02:12;;;;;;;10.65;4.20;;;38.80;38.30;;;;;;5071857;28;20168;-78
2023/08/21 08:04:38;;;;;;;12.63;3.78;;;39.10;38.00;;;;;;5072477;28;20570;-78
2023/08/21 08:07:04;;;;;;;9.60;3.70;;;39.20;37.70;;;;;;5074908;28;20631;-78
2023/08/21 08:09:30;;;;;;;7.30;3.60;;;39.90;37.00;;;;;;5079089;28;20229;-78
2023/08/21 08:11:56;;;;;;;8.40;3.80;;;40.60;36.40;;;;;;5081827;28;20171;-78
2023/08/21 08:14:21;;;;;;;8.13;4.07;;;40.60;35.30;;;;;;5086860;28;20640;-78
2023/08/21 08:16:47;;;;;;;8.82;3.78;;;41.10;35.30;;;;;;5071045;28;20172;-77
2023/08/21 08:19:13;;;;;;;6.60;3.50;;;40.70;34.40;;;;;;5072355;28;20223;-78
2023/08/21 08:21:38;;;;;;;14.02;4.63;;;40.60;35.30;;;;;;5096796;28;20540;-79
2023/08/21 08:24:04;;;;;;;10.30;5.15;;;40.60;35.20;;;;;;5081915;28;20254;-76
2023/08/21 08:26:30;;;;;;;10.27;5.53;;;40.40;35.10;;;;;;5084442;28;20186;-76
2023/08/21 08:28:56;;;;;;;11.10;6.75;;;40.30;35.00;;;;;;5078059;28;20178;-72
2023/08/21 08:31:23;;;;;;;10.15;5.10;;;40.30;35.10;;;;;;5088458;28;20175;-74
2023/08/21 08:33:49;;;;;;;10.25;5.82;;;40.30;34.60;;;;;;5080901;28;20565;-74
2023/08/21 08:36:14;;;;;;;9.93;4.72;;;40.50;34.50;;;;;;5084173;28;20179;-76
2023/08/21 08:38:40;;;;;;;11.65;6.13;;;40.50;34.60;;;;;;5070903;28;20544;-77
2023/08/21 08:41:11;;;;;;;12.80;5.20;;;40.90;34.00;;;;;;5077723;28;20260;-77
2023/08/21 08:43:40;;;;;;;11.25;5.50;;;41.40;33.40;;;;;;5080752;28;20569;-76
2023/08/21 08:46:07;;;;;;;11.05;5.38;;;40.60;34.20;;;;;;5074124;28;20247;-76
2023/08/21 08:48:37;;;;;;;8.40;5.50;;;38.90;36.50;;;;;;5071570;28;20171;-76
2023/08/21 08:51:06;;;;;;;7.82;4.53;;;39.10;36.40;;;;;;5071709;28;20179;-77
2023/08/21 08:53:32;;;;;;;6.85;4.30;;;39.30;35.70;;;;;;5072028;28;20178;-78
2023/08/21 08:55:58;;;;;;;9.55;4.30;;;38.90;36.40;;;;;;5073727;28;20183;-78
2023/08/21 08:58:24;;;;;;;8.57;4.22;;;38.10;36.90;;;;;;5073184;28;20186;-77
2023/08/21 09:00:50;;;;;;;9.65;4.50;;;37.80;38.20;;;;;;5079145;28;20215;-78
2023/08/21 09:03:16;;;;;;;6.97;4.78;;;37.50;39.10;;;;;;5078257;28;20168;-78
2023/08/21 09:05:42;;;;;;;8.57;3.80;;;38.30;37.30;;;;;;5077747;28;20212;-78
2023/08/21 09:08:14;;;;;;;6.28;3.80;;;38.90;36.00;;;;;;5075354;28;20548;-78
2023/08/21 09:10:41;;;;;;;7.10;3.50;;;39.50;34.60;;;;;;5071542;28;20168;-77
2023/08/21 09:13:15;;;;;;;5.60;3.30;;;39.60;33.70;;;;;;5073644;28;20278;-77
2023/08/21 09:15:43;;;;;;;5.75;4.93;;;40.30;32.60;;;;;;5073712;28;20174;-78
2023/08/21 09:18:10;;;;;;;3.15;2.20;;;40.20;30.40;;;;;;5075763;28;20253;-77
2023/08/21 09:20:36;;;;;;;5.13;2.25;;;40.30;28.70;;;;;;5074907;28;20639;-78
2023/08/21 09:23:03;;;;;;;4.43;2.30;;;40.20;29.10;;;;;;5075703;28;20224;-78
2023/08/21 09:25:35;;;;;;;7.18;3.70;;;40.90;29.30;;;;;;5075218;28;20216;-78
2023/08/21 09:28:04;;;;;;;3.78;2.38;;;41.30;28.80;;;;;;5078594;28;20168;-77
2023/08/21 09:30:30;;;;;;;3.13;2.20;;;40.90;29.50;;;;;;5075346;28;20191;-78
2023/08/21 09:32:59;;;;;;;3.90;2.65;;;41.40;28.50;;;;;;5077453;28;20547;-78
2023/08/21 09:35:26;;;;;;;4.18;2.65;;;40.20;29.00;;;;;;5075432;28;20180;-78
2023/08/21 09:37:54;;;;;;;4.95;2.50;;;39.20;29.80;;;;;;5089237;28;20167;-77
2023/08/21 09:40:21;;;;;;;6.53;2.92;;;38.50;31.00;;;;;;5095731;28;20170;-77
2023/08/21 09:42:58;;;;;;;5.68;3.08;;;38.30;32.30;;;;;;5086229;28;20171;-77
2023/08/21 09:45:25;;;;;;;5.35;3.20;;;38.00;33.30;;;;;;5077271;28;20261;-77
2023/08/21 09:47:54;;;;;;;5.45;3.17;;;38.80;32.60;;;;;;5077644;28;20217;-77
2023/08/21 09:50:21;;;;;;;7.72;3.17;;;39.50;32.20;;;;;;5079798;28;20180;-77
2023/08/21 09:52:47;;;;;;;4.10;3.00;;;39.70;31.20;;;;;;5086141;28;20223;-77
2023/08/21 09:55:14;;;;;;;4.65;2.35;;;39.80;30.60;;;;;;5076961;28;20548;-77
2023/08/21 09:57:41;;;;;;;5.72;2.42;;;40.30;30.20;;;;;;5088869;28;20210;-77
2023/08/21 10:00:20;;;;;;;3.28;2.30;;;39.70;29.70;;;;;;5078047;28;20236;-77
2023/08/21 10:02:50;;;;;;;4.00;1.90;;;38.90;30.80;;;;;;5075496;28;20238;-77
2023/08/21 10:05:19;;;;;;;2.40;1.58;;;39.10;29.60;;;;;;5085699;28;20203;-77
2023/08/21 10:07:50;;;;;;;4.15;2.25;;;38.60;29.60;;;;;;5087511;28;20163;-77
2023/08/21 10:10:17;;;;;;;4.07;1.80;;;38.70;29.80;;;;;;5084284;28;20643;-77
2023/08/21 10:12:42;;;;;;;3.30;2.33;;;39.20;29.20;;;;;;5091683;28;20175;-77
2023/08/21 10:15:09;;;;;;;2.78;2.00;;;39.10;29.20;;;;;;5082479;28;20175;-77
2023/08/21 10:17:36;;;;;;;2.47;2.00;;;39.10;28.80;;;;;;5076461;28;20314;-76
2023/08/21 10:20:06;;;;;;;3.45;1.90;;;38.50;29.10;;;;;;5084057;28;20180;-76
2023/08/21 10:22:45;;;;;;;4.88;2.03;;;38.10;29.50;;;;;;5084828;28;20339;-76
2023/08/21 10:25:15;;;;;;;4.22;2.00;;;36.60;31.30;;;;;;5091439;28;20206;-76
2023/08/21 10:27:42;;;;;;;3.75;2.05;;;36.10;32.40;;;;;;5072792;28;20187;-75
2023/08/21 10:30:28;;;;;;;2.35;1.70;;;35.70;33.30;;;;;;5073090;28;20251;-75
2023/08/21 10:32:57;;;;;;;3.35;1.38;;;36.30;32.60;;;;;;5074220;28;20319;-77
2023/08/21 10:35:28;;;;;;;1.63;1.50;;;36.00;31.80;;;;;;5072726;28;20210;-75
2023/08/21 10:38:17;;;;;;;2.03;1.30;;;35.50;32.50;;;;;;5075275;28;20172;-75
2023/08/21 10:41:08;;;;;;;2.60;1.52;;;35.30;34.00;;;;;;5074703;28;20223;-76
2023/08/21 10:43:41;;;;;;;2.72;1.90;;;35.50;34.00;;;;;;5073158;28;20176;-76
2023/08/21 10:46:08;;;;;;;2.60;1.30;;;35.80;33.80;;;;;;5074510;28;20275;-75
2023/08/21 10:48:34;;;;;;;2.88;1.40;;;35.50;33.30;;;;;;5074190;28;20207;-75
2023/08/21 10:51:05;;;;;;;1.42;1.08;;;35.50;33.90;;;;;;5074600;28;20171;-76
2023/08/21 10:53:32;;;;;;;3.00;1.83;;;36.00;34.00;;;;;;5074801;28;20172;-76
2023/08/21 10:56:01;;;;;;;2.90;1.70;;;36.00;32.70;;;;;;5074346;28;20175;-76
2023/08/21 10:58:27;;;;;;;4.45;1.80;;;35.80;33.80;;;;;;5074384;28;20650;-76
2023/08/21 11:00:59;;;;;;;2.50;1.33;;;36.50;32.70;;;;;;5073335;28;20180;-75
2023/08/21 11:03:25;;;;;;;2.90;1.75;;;36.70;32.00;;;;;;5074209;28;20171;-75
2023/08/21 11:06:04;;;;;;;2.53;1.58;;;37.00;31.90;;;;;;5077219;28;20679;-75
2023/08/21 11:08:32;;;;;;;4.25;2.72;;;36.90;31.60;;;;;;5074793;28;20187;-75
2023/08/21 11:10:57;;;;;;;2.00;1.58;;;35.90;32.30;;;;;;5075845;28;20233;-76
2023/08/21 11:13:26;;;;;;;4.78;2.00;;;34.90;33.60;;;;;;5085469;28;20168;-75
2023/08/21 11:16:03;;;;;;;4.70;2.60;;;34.60;35.40;;;;;;5078553;28;20180;-75
2023/08/21 11:18:34;;;;;;;3.83;2.15;;;34.90;35.50;;;;;;5072920;28;20266;-75
2023/08/21 11:21:08;;;;;;;2.58;1.92;;;35.50;35.50;;;;;;5072282;28;20243;-75
2023/08/21 11:23:35;;;;;;;5.10;2.20;;;35.80;34.60;;;;;;5073070;28;20179;-75
2023/08/21 11:26:02;;;;;;;4.20;1.70;;;35.40;35.60;;;;;;5071899;28;20702;-76
2023/08/21 11:28:29;;;;;;;1.70;1.50;;;34.60;36.10;;;;;;5075735;28;20211;-76
2023/08/21 11:30:56;;;;;;;2.53;1.60;;;33.10;38.10;;;;;;5080799;28;20185;-75
2023/08/21 11:33:22;;;;;;;3.03;1.60;;;32.70;40.10;;;;;;5072528;28;20655;-76
2023/08/21 11:35:47;;;;;;;3.72;2.00;;;34.00;39.40;;;;;;5073485;28;20176;-74
2023/08/21 11:38:24;;;;;;;3.58;1.70;;;34.40;38.80;;;;;;5081006;28;20180;-74
2023/08/21 11:41:02;;;;;;;3.70;1.65;;;35.00;38.10;;;;;;5086140;28;20520;-74
2023/08/21 11:43:39;;;;;;;4.45;1.58;;;34.50;38.30;;;;;;5094077;28;20194;-74
2023/08/21 11:46:06;;;;;;;4.10;2.42;;;34.90;37.40;;;;;;5093341;28;20514;-75
2023/08/21 11:48:33;;;;;;;3.55;2.10;;;35.00;37.40;;;;;;5092206;28;20195;-75
2023/08/21 11:50:58;;;;;;;5.32;2.15;;;35.20;37.20;;;;;;5094023;28;20175;-75
2023/08/21 11:53:38;;;;;;;7.10;1.85;;;35.00;37.80;;;;;;5093557;28;20304;-75
2023/08/21 11:56:15;;;;;;;3.00;1.90;;;33.70;38.70;;;;;;5093530;28;20622;-74
2023/08/21 11:58:43;;;;;;;6.40;1.85;;;32.80;40.60;;;;;;5093748;28;20167;-74
2023/08/21 12:01:09;;;;;;;4.35;1.88;;;32.40;41.90;;;;;;5092459;28;20275;-74
2023/08/21 12:03:37;;;;;;;4.10;1.58;;;31.90;43.20;;;;;;5092305;28;20176;-73
2023/08/21 12:06:10;;;;;;;2.33;1.40;;;30.80;44.90;;;;;;5091404;28;20208;-74
2023/08/21 12:08:37;;;;;;;12.63;2.92;;;31.20;46.40;;;;;;5092444;28;20168;-74
2023/08/21 12:11:03;;;;;;;6.78;2.17;;;31.30;46.30;;;;;;5091262;28;20209;-73
2023/08/21 12:13:29;;;;;;;5.70;2.28;;;30.30;48.00;;;;;;5093393;28;20252;-73
2023/08/21 12:15:55;;;;;;;4.28;1.88;;;30.10;50.60;;;;;;5092877;28;20569;-72
2023/08/21 12:18:21;;;;;;;4.13;1.83;;;30.10;51.60;;;;;;5092956;28;20234;-73
2023/08/21 12:20:47;;;;;;;5.43;2.75;;;30.20;51.90;;;;;;5093714;28;20511;-73
2023/08/21 12:23:12;;;;;;;2.92;1.88;;;30.70;51.50;;;;;;5093448;28;20199;-73
2023/08/21 12:25:38;;;;;;;6.43;2.47;;;30.40;51.50;;;;;;5092762;28;20671;-73
2023/08/21 12:28:06;;;;;;;4.45;2.25;;;30.20;52.70;;;;;;5093230;28;20270;-72
2023/08/21 12:30:32;;;;;;;7.35;1.92;;;30.20;52.30;;;;;;5092657;28;20285;-73
2023/08/21 12:32:57;;;;;;;4.22;2.15;;;30.40;52.70;;;;;;5092710;28;20172;-73
2023/08/21 12:35:23;;;;;;;3.70;1.90;;;30.20;53.10;;;;;;5093382;28;20580;-73
2023/08/21 12:37:48;;;;;;;2.25;1.70;;;29.90;55.00;;;;;;5092577;28;20273;-73
2023/08/21 12:40:14;;;;;;;2.75;2.00;;;29.80;54.90;;;;;;5092327;28;20233;-72
2023/08/21 12:42:40;;;;;;;4.35;2.00;;;29.60;56.50;;;;;;5092658;28;20175;-73
2023/08/21 12:45:06;;;;;;;4.60;2.53;;;29.50;57.20;;;;;;5092597;28;20207;-72